Bradford County (N27)
Towanda, PA
Field Elevation: 730
Lat: 41°44.40N  Long: 76°26.83W
CTAF/Unicom Freq: 123.0000
   
     For Weather-by-Phone, call (570) 265-1024
Weather Advisories
7/24/2014 10:38 Z
Altimeter 29.96" Hg
Wind 180° @ 0 KT
Gusts --
Visibility 10 SM
Ceiling SCT058
Temperature 17° C (63° F)
Dewpoint 16° C (61° F)
Relative Humidity 97%
Density Altitude --
Condensation Altitude 1,000 feet
  Wind and Runways
Indicated Runway = 23
History
 
 
More Info
All DigiWx sites map
NOAA Forecast
 
Airport IQ 5010
(LHV) Lock Haven
(PS81) Robert Packer Hospital
 
about DigiWx
 
FAA Disclaimer: The data displayed is for advisory purposes only and is not to be used for flight planning or operations. For official data, please call (570) 265-1024 to hear the current automated AWOS voice message.
  METAR N27 241038Z AUTO 18000KT 10SM SCT058 17/16 A2996